aviador You're here:

LZTT Decoded Metar

POPRAD in SLOVAKIA
Report Time2017-12-13 10:30:00
UTC Time2017-12-13 10:57:51
Flight Rules vfr VFR
Wind260° at 06 kt
W.Decomp.*RWY 25: 6.0 kt HW 0.6 kt RCW
RWY 27: 5.8 kt HW 1.5 kt LCW
W.Rank260° ranks 1
Current wind is below 260° avg. (9.8)
Visibility9999 m
Phenomena:N/A
Clouds:Few 010 Hf
Scattered 100 Hf
Expected CloudBase > 1,600 ft AGL from Temp-Dew spread
CeilingNone
Temp01°C (ISA -9)
Dew Point-3°C (75% RH)
AAT-3.5°C
QNH1015 hPa
Density Alt1,188 ft
Elevation2,320 ft
Report Wrong Elevation
Raw Report
LZTT 131030Z 26006KT 9999 FEW010 SCT100 01/M03 Q1015 NOSIG=

Extra information for LZTT:More info

Metar Taf Metar & Taf Last 4 Metars F.Rules Stats Wind Profile Meteogram Temp Stats Airport Information Weather charts Add Link Nearby VenuesMetar ALERT Operation Metar Decoded Social comments